地図

経路データ

SID SEASON NUMBER BASIN SUBBASIN NAME ISO_TIME NATURE LAT LON WMO_WIND WMO_PRES WMO_AGENCY TRACK_TYPE DIST2LAND LANDFALL IFLAG USA_AGENCY USA_ATCF_ID USA_LAT USA_LON USA_RECORD USA_STATUS USA_WIND USA_PRES USA_SSHS USA_R34_NE USA_R34_SE USA_R34_SW USA_R34_NW USA_R50_NE USA_R50_SE USA_R50_SW USA_R50_NW USA_R64_NE USA_R64_SE USA_R64_SW USA_R64_NW USA_POCI USA_ROCI USA_RMW USA_EYE TOKYO_LAT TOKYO_LON TOKYO_GRADE TOKYO_WIND TOKYO_PRES TOKYO_R50_DIR TOKYO_R50_LONG TOKYO_R50_SHORT TOKYO_R30_DIR TOKYO_R30_LONG TOKYO_R30_SHORT TOKYO_LAND CMA_LAT CMA_LON CMA_CAT CMA_WIND CMA_PRES HKO_LAT HKO_LON HKO_CAT HKO_WIND HKO_PRES NEWDELHI_LAT NEWDELHI_LON NEWDELHI_GRADE NEWDELHI_WIND NEWDELHI_PRES NEWDELHI_CI NEWDELHI_DP NEWDELHI_POCI REUNION_LAT REUNION_LON REUNION_TYPE REUNION_WIND REUNION_PRES REUNION_TNUM REUNION_CI REUNION_RMW REUNION_R34_NE REUNION_R34_SE REUNION_R34_SW REUNION_R34_NW REUNION_R50_NE REUNION_R50_SE REUNION_R50_SW REUNION_R50_NW REUNION_R64_NE REUNION_R64_SE REUNION_R64_SW REUNION_R64_NW BOM_LAT BOM_LON BOM_TYPE BOM_WIND BOM_PRES BOM_TNUM BOM_CI BOM_RMW BOM_R34_NE BOM_R34_SE BOM_R34_SW BOM_R34_NW BOM_R50_NE BOM_R50_SE BOM_R50_SW BOM_R50_NW BOM_R64_NE BOM_R64_SE BOM_R64_SW BOM_R64_NW BOM_ROCI BOM_POCI BOM_EYE BOM_POS_METHOD BOM_PRES_METHOD NADI_LAT NADI_LON NADI_CAT NADI_WIND NADI_PRES WELLINGTON_LAT WELLINGTON_LON WELLINGTON_WIND WELLINGTON_PRES DS824_LAT DS824_LON DS824_STAGE DS824_WIND DS824_PRES TD9636_LAT TD9636_LON TD9636_STAGE TD9636_WIND TD9636_PRES TD9635_LAT TD9635_LON TD9635_WIND TD9635_PRES TD9635_ROCI NEUMANN_LAT NEUMANN_LON NEUMANN_CLASS NEUMANN_WIND NEUMANN_PRES MLC_LAT MLC_LON MLC_CLASS MLC_WIND MLC_PRES USA_GUST BOM_GUST BOM_GUST_PER REUNION_GUST REUNION_GUST_PER USA_SEAHGT USA_SEARAD_NE USA_SEARAD_SE USA_SEARAD_SW USA_SEARAD_NW STORM_SPEED STORM_DIR
1937275N25272 1937 53 NA GM NOT_NAMED 1937-10-02 00:00:00 TS 24.5000 -87.7000 35 hurdat_atl main 335 335 O_____________ hurdat_atl AL101937 24.5000 -87.7000 TS 35 0 8 287
1937275N25272 1937 53 NA GM NOT_NAMED 1937-10-02 03:00:00 TS 24.6202 -88.1353 main 346 346 P_____________ AL101937 24.6202 -88.1353 TS 37 0 9 296
1937275N25272 1937 53 NA GM NOT_NAMED 1937-10-02 06:00:00 TS 24.9000 -88.6000 40 hurdat_atl main 380 380 O_____________ hurdat_atl AL101937 24.9000 -88.6000 TS 40 0 12 313
1937275N25272 1937 53 NA GM NOT_NAMED 1937-10-02 09:00:00 TS 25.4398 -89.1199 main 402 329 P_____________ AL101937 25.4398 -89.1199 TS 40 0 16 320
1937275N25272 1937 53 NA GM NOT_NAMED 1937-10-02 12:00:00 TS 26.1000 -89.7000 40 1003 hurdat_atl main 329 268 O_____________ hurdat_atl AL101937 26.1000 -89.7000 TS 40 1003 0 17 319
1937275N25272 1937 53 NA GM NOT_NAMED 1937-10-02 15:00:00 TS 26.7303 -90.3645 main 268 201 P_____________ AL101937 26.7303 -90.3645 TS 40 1002 0 17 316
1937275N25272 1937 53 NA GM NOT_NAMED 1937-10-02 18:00:00 TS 27.3000 -91.0000 40 1002 hurdat_atl main 201 166 O_____________ hurdat_atl AL101937 27.3000 -91.0000 TS 40 1002 0 14 314
1937275N25272 1937 53 NA GM NOT_NAMED 1937-10-02 21:00:00 TS 27.7373 -91.5330 main 166 145 P_____________ AL101937 27.7373 -91.5330 TS 37 0 11 315
1937275N25272 1937 53 NA GM NOT_NAMED 1937-10-03 00:00:00 TS 28.1000 -91.9000 35 hurdat_atl main 145 124 O_____________ hurdat_atl AL101937 28.1000 -91.9000 TS 35 0 9 326
1937275N25272 1937 53 NA GM NOT_NAMED 1937-10-03 03:00:00 TS 28.4572 -92.0754 main 113 80 P_____________ AL101937 28.4572 -92.0754 TS 35 0 7 346
1937275N25272 1937 53 NA GM NOT_NAMED 1937-10-03 06:00:00 TS 28.8000 -92.1000 35 hurdat_atl main 80 48 O_____________ hurdat_atl AL101937 28.8000 -92.1000 TS 35 0 7 0
1937275N25272 1937 53 NA GM NOT_NAMED 1937-10-03 09:00:00 TS 29.1267 -92.0580 main 48 14 P_____________ AL101937 29.1267 -92.0580 TS 35 0 7 7
1937275N25272 1937 53 NA GM NOT_NAMED 1937-10-03 12:00:00 TS 29.5000 -92.0000 35 hurdat_atl main 14 0 O_____________ hurdat_atl AL101937 29.5000 -92.0000 L TS 35 0 8 5
1937275N25272 1937 53 NA GM NOT_NAMED 1937-10-03 14:00:00 TS 29.8000 -92.0000 35 hurdat_atl main 0 0 O_____________ hurdat_atl AL101937 29.8000 -92.0000 L TS 35 0 9 0
1937275N25272 1937 53 NA NA NOT_NAMED 1937-10-03 15:00:00 TS 29.9605 -92.0000 main 0 0 P_____________ AL101937 29.9605 -92.0000 TS 33 -1 11 0
1937275N25272 1937 53 NA NA NOT_NAMED 1937-10-03 18:00:00 TS 30.5000 -92.0000 30 hurdat_atl main 0 0 O_____________ hurdat_atl AL101937 30.5000 -92.0000 TD 30 -1 12 0
1937275N25272 1937 53 NA NA NOT_NAMED 1937-10-03 21:00:00 TS 31.1201 -92.0069 main 0 0 P_____________ AL101937 31.1201 -92.0069 TD 30 -1 13 1
1937275N25272 1937 53 NA NA NOT_NAMED 1937-10-04 00:00:00 TS 31.8000 -92.0000 30 hurdat_atl main 0 0 O_____________ hurdat_atl AL101937 31.8000 -92.0000 TD 30 -1 14 2
1937275N25272 1937 53 NA NA NOT_NAMED 1937-10-04 03:00:00 TS 32.4975 -91.9604 main 0 0 P_____________ AL101937 32.4975 -91.9604 TD 27 -1 14 4
1937275N25272 1937 53 NA NA NOT_NAMED 1937-10-04 06:00:00 TS 33.2000 -91.9000 25 hurdat_atl main 0 O_____________ hurdat_atl AL101937 33.2000 -91.9000 TD 25 -1 14 4

IBTrACS Databaseについて

本データベースは、米国NOAAが公開する1842年以降の世界の熱帯低気圧のベストトラックデータアーカイブInternational Best Track Archive for Climate Stewardship (IBTrACS)を、ウェブで閲覧しやすい形式に変換したものです。

最終更新日:2021-12-08